createdAt,value
2023-02-03T00:03:15.351Z,98608.75
2023-02-03T00:08:17.902Z,98611.34
2023-02-03T00:13:19.771Z,98606.16
2023-02-03T00:18:21.664Z,98617.34
2023-02-03T00:23:23.588Z,98611.25
2023-02-03T00:28:25.456Z,98624.19
2023-02-03T00:33:27.341Z,98616.44
2023-02-03T00:38:29.268Z,98620.72
2023-02-03T00:43:31.144Z,98611.22
2023-02-03T00:48:33.048Z,98614.66
2023-02-03T00:53:35.000Z,98600.88
2023-02-03T00:58:36.907Z,98608.59
2023-02-03T01:03:38.792Z,98612.94
2023-02-03T01:08:40.780Z,98606.03
2023-02-03T01:13:42.806Z,98595.66
2023-02-03T01:18:44.791Z,98594.78
2023-02-03T01:23:46.751Z,98597.34
2023-02-03T01:28:53.304Z,98601.63
2023-02-03T01:33:55.513Z,98605.94
2023-02-03T01:38:57.385Z,98605.09
2023-02-03T01:43:59.851Z,98596.47
2023-02-03T01:49:07.675Z,98593.91
2023-02-03T01:54:10.484Z,98586.16
2023-02-03T01:59:12.433Z,98581.84
2023-02-03T02:04:14.307Z,98590.47
2023-02-03T02:09:16.218Z,98587.03
2023-02-03T02:14:18.113Z,98585.34
2023-02-03T02:19:44.363Z,98585.28
2023-02-03T02:25:04.321Z,98583.50
2023-02-03T02:30:36.920Z,98590.34
2023-02-03T02:36:06.133Z,98582.63
2023-02-03T02:41:10.815Z,98580.84
2023-02-03T02:46:37.669Z,98575.72
2023-02-03T02:51:39.738Z,98574.84
2023-02-03T02:56:41.601Z,98576.47
2023-02-03T03:01:43.505Z,98580.94
2023-02-03T03:06:48.257Z,98585.25
2023-02-03T03:12:02.115Z,98578.31
2023-02-03T03:17:06.159Z,98580.94
2023-02-03T03:22:09.299Z,98581.72
2023-02-03T03:27:23.665Z,98577.41
2023-02-03T03:32:25.553Z,98588.59
2023-02-03T03:37:37.298Z,98585.13
2023-02-03T03:42:45.751Z,98583.34
2023-02-03T03:47:48.518Z,98582.44
2023-02-03T03:52:50.208Z,98582.53
2023-02-03T03:58:00.964Z,98579.03
2023-02-03T04:03:07.289Z,98572.09
2023-02-03T04:08:09.331Z,98585.13
2023-02-03T04:13:12.117Z,98582.53
2023-02-03T04:18:14.715Z,98581.66
2023-02-03T04:23:16.912Z,98581.59
2023-02-03T04:28:19.022Z,98589.41
2023-02-03T04:33:20.885Z,98583.38
2023-02-03T04:38:22.671Z,98592.06
2023-02-03T04:43:24.498Z,98587.78
2023-02-03T04:48:26.382Z,98587.75
2023-02-03T04:53:28.135Z,98587.72
2023-02-03T04:58:29.884Z,98585.09
2023-02-03T05:03:31.678Z,98592.84
2023-02-03T05:08:33.427Z,98587.63
2023-02-03T05:13:35.186Z,98590.19
2023-02-03T05:18:37.008Z,98603.97
2023-02-03T05:23:38.742Z,98597.06
2023-02-03T05:28:40.493Z,98587.56
2023-02-03T05:33:42.268Z,98598.84
2023-02-03T05:38:44.053Z,98591.94
2023-02-03T05:43:45.834Z,98597.06
2023-02-03T05:48:47.618Z,98597.03
2023-02-03T05:53:49.363Z,98596.09
2023-02-03T05:58:51.097Z,98598.72
2023-02-03T06:03:52.954Z,98593.53
2023-02-03T06:08:54.792Z,98591.78
2023-02-03T06:13:56.747Z,98602.19
2023-02-03T06:18:58.490Z,98595.16
2023-02-03T06:24:00.228Z,98600.25
2023-02-03T06:29:02.053Z,98601.97
2023-02-03T06:34:03.814Z,98610.59
2023-02-03T06:39:05.548Z,98611.53
2023-02-03T06:44:07.657Z,98608.03
2023-02-03T06:49:09.408Z,98603.63
2023-02-03T06:54:11.815Z,98604.53
2023-02-03T06:59:13.813Z,98598.50
2023-02-03T07:04:15.620Z,98600.88
2023-02-03T07:09:17.378Z,98595.53
2023-02-03T07:14:19.134Z,98603.25
2023-02-03T07:19:20.878Z,98608.31
2023-02-03T07:24:22.624Z,98600.28
2023-02-03T07:29:24.404Z,98598.56
2023-02-03T07:34:26.138Z,98585.38
2023-02-03T07:39:27.909Z,98581.81
2023-02-03T07:44:29.670Z,98580.56
2023-02-03T07:49:31.419Z,98588.97
2023-02-03T07:54:33.183Z,98594.06
2023-02-03T07:59:34.911Z,98603.75
2023-02-03T08:04:36.802Z,98597.72
2023-02-03T08:09:38.622Z,98580.34
2023-02-03T08:14:40.369Z,98589.38
2023-02-03T08:19:42.107Z,98571.91
2023-02-03T08:24:44.270Z,98578.00
2023-02-03T08:29:46.045Z,98575.13
2023-02-03T08:34:48.595Z,98569.22
2023-02-03T08:39:50.880Z,98564.47
2023-02-03T08:44:52.642Z,98561.19
2023-02-03T08:49:54.376Z,98566.75
2023-02-03T08:54:56.154Z,98572.00
2023-02-03T08:59:57.886Z,98575.94
2023-02-03T09:04:59.720Z,98576.13
2023-02-03T09:10:01.494Z,98570.25
2023-02-03T09:15:04.948Z,98571.19
2023-02-03T09:20:07.390Z,98575.31
2023-02-03T09:25:09.151Z,98575.47
2023-02-03T09:30:11.672Z,98583.56
2023-02-03T09:35:13.477Z,98570.56
2023-02-03T09:40:28.220Z,98569.63
2023-02-03T09:45:30.698Z,98566.06
2023-02-03T09:50:33.927Z,98566.06
2023-02-03T09:55:42.289Z,98565.94
2023-02-03T10:00:51.579Z,98566.91
2023-02-03T10:06:14.836Z,98565.75
2023-02-03T10:11:22.255Z,98558.41
2023-02-03T10:16:28.486Z,98561.31
2023-02-03T10:21:39.282Z,98556.19
2023-02-03T10:26:41.078Z,98558.16
2023-02-03T10:31:42.979Z,98558.41
2023-02-03T10:37:46.358Z,98560.28
2023-02-03T10:42:48.203Z,98553.38
2023-02-03T10:47:53.814Z,98553.44
2023-02-03T10:53:20.137Z,98560.66
2023-02-03T10:58:28.621Z,98548.50
2023-02-03T11:03:30.430Z,98543.97
2023-02-03T11:08:32.497Z,98539.66
2023-02-03T11:13:34.304Z,98537.56
2023-02-03T11:18:56.176Z,98536.38
2023-02-03T11:24:05.082Z,98533.22
2023-02-03T11:29:06.939Z,98531.72
2023-02-03T11:34:19.562Z,98526.53
2023-02-03T11:39:29.248Z,98542.09
2023-02-03T11:44:31.026Z,98533.00
2023-02-03T11:49:51.359Z,98533.84
2023-02-03T11:55:29.291Z,98519.38
2023-02-03T12:00:54.942Z,98518.31
2023-02-03T12:06:14.525Z,98520.09
2023-02-03T12:11:37.094Z,98514.78
2023-02-03T12:16:47.897Z,98523.09
2023-02-03T12:21:51.739Z,98515.09
2023-02-03T12:27:24.323Z,98519.28
2023-02-03T12:32:32.400Z,98511.47
2023-02-03T12:37:39.949Z,98524.00
2023-02-03T12:42:47.911Z,98518.81
2023-02-03T12:48:01.068Z,98517.00
2023-02-03T12:53:02.579Z,98511.78
2023-02-03T12:58:39.963Z,98514.63
2023-02-03T13:03:56.151Z,98518.22
2023-02-03T13:09:14.212Z,98513.72
2023-02-03T13:14:23.210Z,98510.88
2023-02-03T13:19:26.738Z,98510.03
2023-02-03T13:24:28.682Z,98508.47
2023-02-03T13:29:54.360Z,98510.31
2023-02-03T13:35:33.240Z,98519.06
2023-02-03T13:41:00.135Z,98517.63
2023-02-03T13:46:02.111Z,98521.28
2023-02-03T13:51:06.360Z,98516.31
2023-02-03T13:56:09.055Z,98517.09
2023-02-03T14:01:30.592Z,98512.78
2023-02-03T14:06:38.472Z,98509.28
2023-02-03T14:11:40.489Z,98514.47
2023-02-03T14:16:54.677Z,98512.84
2023-02-03T14:22:04.216Z,98520.69
2023-02-03T14:27:16.375Z,98521.59
2023-02-03T14:32:18.096Z,98517.34
2023-02-03T14:37:23.644Z,98529.28
2023-02-03T14:43:04.895Z,98532.09
2023-02-03T14:48:11.350Z,98531.41
2023-02-03T14:53:45.455Z,98526.19
2023-02-03T14:58:50.801Z,98531.41
2023-02-03T15:04:13.914Z,98529.59
2023-02-03T15:09:32.080Z,98529.50
2023-02-03T15:14:33.919Z,98520.81
2023-02-03T15:19:37.979Z,98530.50
2023-02-03T15:24:39.823Z,98526.19
2023-02-03T15:29:41.699Z,98530.53
2023-02-03T15:34:52.205Z,98539.19
2023-02-03T15:40:07.130Z,98533.91
2023-02-03T15:45:29.366Z,98532.13
2023-02-03T15:50:46.097Z,98543.53
2023-02-03T15:55:52.442Z,98545.41
2023-02-03T16:01:02.086Z,98544.56
2023-02-03T16:06:25.511Z,98552.38
2023-02-03T16:11:30.397Z,98549.88
2023-02-03T16:17:02.755Z,98549.16
2023-02-03T16:22:30.309Z,98554.25
2023-02-03T16:27:33.554Z,98550.78
2023-02-03T16:32:35.561Z,98556.84
2023-02-03T16:37:43.799Z,98549.13
2023-02-03T16:42:45.609Z,98562.09
2023-02-03T16:47:47.396Z,98563.91
2023-02-03T16:52:49.366Z,98562.09
2023-02-03T16:57:51.178Z,98566.47
2023-02-03T17:02:53.123Z,98563.00
2023-02-03T17:07:55.044Z,98568.28
2023-02-03T17:12:56.844Z,98571.75
2023-02-03T17:17:58.896Z,98567.47
2023-02-03T17:23:00.802Z,98579.59
2023-02-03T17:28:06.267Z,98582.16
2023-02-03T17:33:08.457Z,98585.63
2023-02-03T17:38:13.288Z,98586.50
2023-02-03T17:53:53.487Z,98597.00
2023-02-03T17:58:56.328Z,98600.44
2023-02-03T18:03:59.587Z,98597.81
2023-02-03T18:09:08.502Z,98605.59
2023-02-03T18:14:10.471Z,98607.34
2023-02-03T18:19:13.749Z,98611.72
2023-02-03T18:24:15.551Z,98607.44
2023-02-03T18:29:17.900Z,98606.66
2023-02-03T18:34:19.775Z,98622.19
2023-02-03T18:39:21.637Z,98624.72
2023-02-03T18:44:23.458Z,98629.84
2023-02-03T18:49:25.521Z,98628.94
2023-02-03T18:54:28.766Z,98625.41
2023-02-03T18:59:32.275Z,98629.78
2023-02-03T19:04:34.076Z,98639.31
2023-02-03T19:09:35.863Z,98642.00
2023-02-03T19:14:37.764Z,98648.88
2023-02-03T19:19:39.575Z,98648.09
2023-02-03T19:24:41.975Z,98643.72
2023-02-03T19:29:43.911Z,98642.97
2023-02-03T19:34:45.812Z,98650.81
2023-02-03T19:39:47.592Z,98644.81
2023-02-03T19:44:49.340Z,98650.81
2023-02-03T19:49:51.081Z,98657.69
2023-02-03T19:54:52.992Z,98670.66
2023-02-03T19:59:54.865Z,98674.97
2023-02-03T20:04:56.817Z,98671.50
2023-02-03T20:09:58.921Z,98684.47
2023-02-03T20:15:00.815Z,98686.19
2023-02-03T20:20:02.682Z,98675.84
2023-02-03T20:25:04.970Z,98687.06
2023-02-03T20:30:07.252Z,98688.75
2023-02-03T20:35:09.206Z,98699.97
2023-02-03T20:40:15.962Z,98698.22
2023-02-03T20:45:18.335Z,98712.03
2023-02-03T20:50:25.023Z,98713.75
2023-02-03T20:55:28.831Z,98718.09
2023-02-03T21:00:30.899Z,98712.91
2023-02-03T21:05:35.853Z,98721.53
2023-02-03T21:10:37.750Z,98728.44
2023-02-03T21:15:39.628Z,98733.59
2023-02-03T21:20:41.498Z,98723.25
2023-02-03T21:25:43.354Z,98734.50
2023-02-03T21:30:45.256Z,98736.25
2023-02-03T21:35:47.216Z,98741.41
2023-02-03T21:40:49.127Z,98737.91
2023-02-03T21:45:51.142Z,98747.38
2023-02-03T21:50:57.199Z,98747.34
2023-02-03T21:56:17.144Z,98754.28
2023-02-03T22:01:19.850Z,98758.66
2023-02-03T22:06:21.513Z,98766.47
2023-02-03T22:11:25.047Z,98761.25
2023-02-03T22:16:26.968Z,98763.84
2023-02-03T22:21:28.856Z,98766.44
2023-02-03T22:26:30.722Z,98769.88
2023-02-03T22:31:32.769Z,98764.69
2023-02-03T22:36:34.787Z,98771.59
2023-02-03T22:41:36.740Z,98774.19
2023-02-03T22:46:38.705Z,98772.50
2023-02-03T22:51:40.586Z,98773.38
2023-02-03T22:56:42.403Z,98775.06
2023-02-03T23:01:44.303Z,98775.03
2023-02-03T23:06:46.088Z,98776.78
2023-02-03T23:11:47.867Z,98792.34
2023-02-03T23:16:49.745Z,98796.66
2023-02-03T23:21:51.671Z,98792.34
2023-02-03T23:26:53.647Z,98796.63
2023-02-03T23:31:55.598Z,98794.03
2023-02-03T23:36:57.576Z,98800.06
2023-02-03T23:41:59.450Z,98804.41
2023-02-03T23:47:01.285Z,98804.41
2023-02-03T23:52:03.233Z,98802.66
2023-02-03T23:57:05.190Z,98811.31
